Aviation Digital Data Service (ADDS)

Output produced by METARs form (1528 UTC 24 August 2019)
found at http://www.aviationweather.gov/metar/data/
 
Forecast for: RJOC (IZUMO AIRPORT , JP)
Text: TAF RJOC 241106Z 2412/2518 17005KT 9999 FEW020 SCT030
Forecast period: 1200 UTC 24 August 2019 to 1800 UTC 25 August 2019
Forecast type: FROM: standard forecast or significant change
Winds: from the S (170 degrees) at 6 MPH (5 knots; 2.6 m/s)
Visibility: 6 or more miles 10+ km)
Ceiling: at least 12,000 feet AGL
Clouds: few clouds at 2000 feet AGL
scattered clouds at 3000 feet AGL
Weather: no significant weather forecast for this period